Edmonton City Centre Airport, Alberta

Past 24 Hour Conditions

This table is a summary of hourly weather conditions for the past 24 hours. This summary includes the following parameters: temperature, humidity, dew point, wind speed and direction, air pressure, visibility and/or wind chill and humidex.
Date / Time
(MDT)
Conditions Temp (°C) Humidity (%) Dew Point (°C) Wind (km/h) Pressure (kPa) Visibility (km)
02 October 2014
4:00 Cloudy 0   74 -4 WNW 26 102.0 15
3:00 Cloudy 1 76 -3 WNW 26 gust 39 101.9 15
2:00 Cloudy 2 62 -5 NW 22 gust 39 101.8 15
1:00 Cloudy 2 62 -4 NW 26 gust 37 101.7 15
00:00 Cloudy 2 60 -5 NW 28 gust 39 101.6 15
01 October 2014
23:00 Mainly Clear 3 59 -5 NW 30 gust 46 101.5 15
22:00 Mostly Cloudy 4 63 -2 NW 28 gust 41 101.3 15
21:00 Clear 5 67 0 WNW 26 gust 39 101.3 15
20:00 Clear 6 60 -1 WNW 30 101.2 15
19:00 Sunny 7 60 0 W 13 101.1 15
18:00 Mainly Sunny 8 56 0 WNW 22 101.1 15
17:00 Mainly Sunny 9 56 0 W 20 gust 30 101.0 15
16:00 Partly Cloudy 10 57 2 WNW 35 gust 48 101.0 15
15:00 Mainly Sunny 9 69 3 NW 9 101.0 15
14:00 Light Rain 9 62 2 NW 26 101.0 15
13:00 Cloudy 11 45 0 NW 28 gust 37 100.9 15
12:00 Sunny 14   43 2 WSW 19 100.9 15
11:00 Sunny 12 49 2 WSW 17 101.0 15
10:00 Mainly Sunny 9 61 2 SW 13 101.0 15
9:00 Partly Cloudy 7 69 1 WSW 9 101.1 15
8:00 Sunny 4 80 1 WSW 11 101.1 15
7:00 Clear 4 83 2 WSW 13 101.1 15
6:00 Clear 4 83 2 WSW 11 101.1 15
5:00 Clear 4 83 2 WSW 6 101.1 15
4:00 Clear 5 80 2 WSW 9 101.1 15
N/A
Not available
 ↑ 
Highest temperature
 ↓ 
Lowest temperature

If you require additional historical weather information, please visit Climate Data Online.